Terminal Aerodrome Forecast
Issued by NWS

Home | Current Version | Previous Version | Text Only | Print | Product List | Glossary On
Versions: 1 2 3 4 5 6 7 8 9 10 11 12 13 14 15 16 17 18 19 20 21 22 23
000
FTUS43 KDTX 251100
TAFPTK
TAF
KPTK 251123Z 2512/2612 23003KT P6SM SCT180
     FM251400 23009KT P6SM SCT050 BKN180
     FM260300 21004KT P6SM OVC150
     FM260700 21005KT P6SM BKN080 OVC150
     FM261000 21007KT 5SM -SHRA BR BKN040 OVC080=

USA.gov is the U.S. government's official web portal to all federal, state and local government web resources and services.